createdAt,value
2018-12-19T00:02:21.836Z,6.17
2018-12-19T00:04:49.312Z,5.20
2018-12-19T00:07:16.568Z,5.93
2018-12-19T00:09:43.804Z,6.23
2018-12-19T00:12:11.046Z,5.83
2018-12-19T00:14:38.313Z,6.03
2018-12-19T00:17:05.529Z,5.97
2018-12-19T00:19:32.773Z,5.30
2018-12-19T00:21:59.988Z,5.87
2018-12-19T00:24:27.255Z,6.77
2018-12-19T00:26:54.468Z,6.40
2018-12-19T00:29:21.713Z,6.57
2018-12-19T00:31:49.117Z,6.70
2018-12-19T00:34:16.416Z,6.33
2018-12-19T00:36:43.662Z,7.47
2018-12-19T00:39:10.890Z,7.10
2018-12-19T00:41:38.128Z,6.90
2018-12-19T00:44:05.409Z,6.30
2018-12-19T00:46:32.666Z,6.20
2018-12-19T00:48:59.907Z,6.50
2018-12-19T00:51:27.156Z,6.20
2018-12-19T00:53:54.389Z,7.67
2018-12-19T00:56:21.642Z,6.70
2018-12-19T00:58:48.944Z,7.00
2018-12-19T01:01:16.263Z,8.53
2018-12-19T01:03:43.498Z,7.00
2018-12-19T01:06:10.982Z,6.50
2018-12-19T01:08:38.276Z,7.47
2018-12-19T01:11:05.563Z,6.70
2018-12-19T01:13:32.839Z,7.37
2018-12-19T01:16:00.099Z,7.40
2018-12-19T01:18:27.366Z,7.60
2018-12-19T01:20:54.604Z,8.07
2018-12-19T01:23:21.835Z,7.80
2018-12-19T01:25:49.073Z,7.30
2018-12-19T01:28:16.308Z,7.10
2018-12-19T01:30:43.553Z,7.90
2018-12-19T01:33:10.781Z,7.43
2018-12-19T01:35:38.406Z,8.57
2018-12-19T01:38:05.924Z,9.00
2018-12-19T01:40:33.198Z,8.60
2018-12-19T01:43:00.436Z,8.77
2018-12-19T01:45:27.680Z,8.80
2018-12-19T01:47:55.242Z,9.00
2018-12-19T01:50:22.464Z,8.40
2018-12-19T01:52:49.732Z,9.20
2018-12-19T01:55:16.971Z,8.30
2018-12-19T01:57:44.226Z,8.77
2018-12-19T02:00:11.464Z,8.53
2018-12-19T02:02:38.721Z,8.97
2018-12-19T02:05:06.103Z,9.67
2018-12-19T02:07:33.367Z,8.63
2018-12-19T02:10:00.710Z,10.00
2018-12-19T02:12:27.993Z,9.93
2018-12-19T02:14:55.335Z,9.23
2018-12-19T02:17:22.608Z,9.23
2018-12-19T02:19:49.820Z,9.30
2018-12-19T02:22:17.084Z,9.60
2018-12-19T02:24:44.308Z,8.93
2018-12-19T02:27:11.555Z,9.10
2018-12-19T02:29:38.782Z,9.43
2018-12-19T02:32:08.414Z,8.90
2018-12-19T02:34:35.876Z,9.43
2018-12-19T02:37:03.169Z,9.13
2018-12-19T02:39:36.158Z,9.60
2018-12-19T02:41:59.707Z,9.07
2018-12-19T02:44:26.928Z,8.93
2018-12-19T02:46:54.185Z,9.10
2018-12-19T02:49:21.421Z,8.70
2018-12-19T02:51:48.678Z,9.60
2018-12-19T02:54:15.914Z,8.77
2018-12-19T02:56:43.170Z,9.67
2018-12-19T02:59:10.425Z,9.17
2018-12-19T03:01:37.673Z,9.40
2018-12-19T03:04:04.943Z,9.30
2018-12-19T03:06:32.180Z,9.27
2018-12-19T03:08:59.401Z,9.47
2018-12-19T03:11:26.664Z,9.37
2018-12-19T03:13:55.917Z,9.20
2018-12-19T03:16:23.376Z,9.33
2018-12-19T03:18:50.856Z,9.67
2018-12-19T03:21:18.076Z,9.93
2018-12-19T03:23:45.333Z,7.83
2018-12-19T03:26:12.578Z,9.43
2018-12-19T03:28:39.836Z,9.10
2018-12-19T03:31:07.178Z,9.20
2018-12-19T03:33:35.219Z,9.07
2018-12-19T03:36:02.453Z,9.77
2018-12-19T03:38:29.709Z,10.00
2018-12-19T03:40:56.948Z,10.40
2018-12-19T03:43:24.187Z,9.67
2018-12-19T03:45:51.411Z,11.07
2018-12-19T03:48:24.389Z,11.10
2018-12-19T03:50:51.755Z,10.10
2018-12-19T03:53:18.990Z,10.93
2018-12-19T03:55:46.183Z,10.27
2018-12-19T03:58:13.425Z,9.73
2018-12-19T04:00:40.660Z,10.20
2018-12-19T04:03:07.885Z,10.20
2018-12-19T04:05:35.161Z,8.73
2018-12-19T04:08:02.570Z,9.80
2018-12-19T04:10:29.869Z,9.50
2018-12-19T04:12:57.119Z,9.40
2018-12-19T04:15:24.314Z,9.20
2018-12-19T04:17:51.544Z,9.43
2018-12-19T04:20:19.106Z,9.13
2018-12-19T04:22:46.361Z,8.10
2018-12-19T04:25:13.573Z,8.53
2018-12-19T04:27:40.813Z,8.40
2018-12-19T04:30:08.275Z,9.17
2018-12-19T04:32:35.977Z,8.47
2018-12-19T04:35:03.428Z,9.33
2018-12-19T04:37:30.752Z,8.57
2018-12-19T04:40:05.147Z,9.00
2018-12-19T04:42:27.284Z,9.00
2018-12-19T04:44:54.489Z,7.60
2018-12-19T04:47:21.699Z,8.53
2018-12-19T04:49:48.942Z,8.77
2018-12-19T04:52:16.259Z,7.87
2018-12-19T04:54:43.494Z,8.70
2018-12-19T04:57:10.726Z,7.73
2018-12-19T04:59:37.960Z,8.63
2018-12-19T05:02:05.189Z,7.87
2018-12-19T05:04:32.417Z,8.13
2018-12-19T05:06:59.692Z,9.30
2018-12-19T05:09:26.948Z,7.50
2018-12-19T05:11:54.187Z,7.83
2018-12-19T05:14:21.739Z,9.10
2018-12-19T05:16:48.951Z,7.97
2018-12-19T05:19:16.164Z,8.33
2018-12-19T05:21:43.376Z,8.73
2018-12-19T05:24:10.599Z,7.03
2018-12-19T05:26:37.803Z,7.97
2018-12-19T05:29:05.060Z,8.40
2018-12-19T05:31:32.273Z,8.07
2018-12-19T05:33:59.482Z,6.67
2018-12-19T05:36:26.683Z,8.00
2018-12-19T05:38:53.920Z,7.90
2018-12-19T05:41:21.153Z,8.80
2018-12-19T05:43:48.358Z,7.50
2018-12-19T05:46:15.600Z,7.60
2018-12-19T05:48:42.837Z,8.90
2018-12-19T05:51:10.066Z,7.60
2018-12-19T05:53:37.305Z,7.93
2018-12-19T05:56:04.537Z,8.57
2018-12-19T05:58:31.747Z,9.63
2018-12-19T06:00:58.992Z,8.20
2018-12-19T06:03:26.205Z,8.47
2018-12-19T06:05:53.463Z,9.20
2018-12-19T06:08:20.696Z,8.70
2018-12-19T06:10:47.927Z,8.87
2018-12-19T06:13:15.130Z,8.10
2018-12-19T06:15:42.369Z,8.27
2018-12-19T06:18:09.565Z,8.40
2018-12-19T06:20:36.801Z,8.53
2018-12-19T06:23:04.041Z,8.67
2018-12-19T06:25:31.259Z,8.93
2018-12-19T06:27:58.477Z,9.50
2018-12-19T06:30:26.137Z,9.97
2018-12-19T06:32:53.476Z,9.27
2018-12-19T06:35:20.764Z,9.63
2018-12-19T06:37:47.954Z,9.03
2018-12-19T06:40:15.196Z,10.47
2018-12-19T06:42:42.549Z,9.57
2018-12-19T06:45:09.783Z,10.47
2018-12-19T06:47:37.012Z,9.87
2018-12-19T06:50:05.639Z,9.67
2018-12-19T06:52:32.848Z,9.50
2018-12-19T06:55:00.051Z,9.80
2018-12-19T06:57:27.544Z,11.10
2018-12-19T06:59:54.728Z,10.97
2018-12-19T07:02:22.031Z,11.97
2018-12-19T07:04:49.238Z,10.30
2018-12-19T07:07:16.463Z,11.33
2018-12-19T07:09:43.767Z,11.13
2018-12-19T07:12:11.172Z,10.87
2018-12-19T07:14:40.706Z,11.77
2018-12-19T07:17:08.228Z,13.80
2018-12-19T07:19:35.445Z,12.47
2018-12-19T07:22:02.815Z,12.30
2018-12-19T07:24:30.089Z,13.00
2018-12-19T07:26:57.330Z,13.50
2018-12-19T07:29:26.159Z,12.47
2018-12-19T07:31:53.401Z,13.60
2018-12-19T07:34:20.632Z,12.67
2018-12-19T07:36:47.874Z,11.70
2018-12-19T07:39:21.947Z,12.97
2018-12-19T07:41:49.196Z,12.63
2018-12-19T07:44:16.880Z,15.27
2018-12-19T07:46:44.468Z,11.30
2018-12-19T07:49:11.708Z,13.33
2018-12-19T07:51:39.301Z,13.73
2018-12-19T07:54:06.525Z,12.57
2018-12-19T07:56:33.829Z,12.53
2018-12-19T07:59:01.085Z,11.73
2018-12-19T08:01:28.304Z,9.30
2018-12-19T08:03:55.528Z,8.70
2018-12-19T08:06:22.756Z,8.20
2018-12-19T08:08:50.008Z,7.50
2018-12-19T08:11:17.232Z,6.47
2018-12-19T08:13:44.465Z,6.93
2018-12-19T08:16:11.707Z,7.20
2018-12-19T08:18:38.993Z,7.30
2018-12-19T08:21:06.204Z,6.70
2018-12-19T08:23:33.435Z,6.30
2018-12-19T08:26:00.641Z,6.57
2018-12-19T08:28:27.910Z,7.00
2018-12-19T08:30:55.122Z,7.50
2018-12-19T08:33:22.420Z,5.50
2018-12-19T08:35:49.809Z,6.00
2018-12-19T08:38:18.158Z,6.53
2018-12-19T08:40:45.390Z,7.20
2018-12-19T08:43:12.635Z,6.43
2018-12-19T08:45:40.275Z,7.37
2018-12-19T08:48:07.479Z,6.70
2018-12-19T08:50:34.689Z,6.67
2018-12-19T08:53:01.915Z,6.97
2018-12-19T08:55:29.181Z,6.37
2018-12-19T08:57:56.448Z,7.40
2018-12-19T09:00:24.223Z,6.90
2018-12-19T09:02:51.665Z,7.07
2018-12-19T09:05:18.872Z,7.43
2018-12-19T09:07:46.267Z,6.33
2018-12-19T09:10:13.538Z,7.37
2018-12-19T09:12:40.744Z,7.77
2018-12-19T09:15:08.133Z,7.97
2018-12-19T09:17:35.887Z,7.57
2018-12-19T09:20:03.891Z,6.60
2018-12-19T09:22:31.183Z,7.00
2018-12-19T09:24:58.459Z,6.90
2018-12-19T09:27:25.708Z,7.13
2018-12-19T09:29:52.937Z,6.80
2018-12-19T09:32:20.172Z,9.67
2018-12-19T09:34:47.397Z,7.10
2018-12-19T09:37:14.634Z,6.93
2018-12-19T09:39:41.869Z,7.20
2018-12-19T09:42:09.094Z,10.60
2018-12-19T09:44:36.353Z,7.87
2018-12-19T09:47:03.580Z,7.67
2018-12-19T09:49:30.814Z,6.80
2018-12-19T09:51:58.075Z,5.97
2018-12-19T09:54:25.415Z,6.87
2018-12-19T09:56:53.470Z,7.70
2018-12-19T09:59:20.893Z,8.93
2018-12-19T10:01:48.141Z,7.97
2018-12-19T10:04:15.401Z,7.60
2018-12-19T10:06:42.604Z,7.60
2018-12-19T10:09:14.780Z,7.10
2018-12-19T10:11:39.271Z,7.27
2018-12-19T10:14:06.661Z,7.67
2018-12-19T10:16:33.880Z,7.70
2018-12-19T10:19:01.133Z,6.53
2018-12-19T10:21:28.723Z,6.80
2018-12-19T10:23:55.975Z,7.00
2018-12-19T10:26:23.308Z,7.87
2018-12-19T10:28:50.584Z,7.10
2018-12-19T10:31:18.006Z,6.87
2018-12-19T10:33:45.512Z,7.43
2018-12-19T10:36:12.751Z,7.60
2018-12-19T10:38:39.937Z,6.67
2018-12-19T10:41:07.426Z,8.03
2018-12-19T10:43:34.641Z,7.77
2018-12-19T10:46:01.877Z,6.87
2018-12-19T10:48:29.068Z,6.67
2018-12-19T10:50:56.523Z,7.60
2018-12-19T10:53:23.730Z,8.17
2018-12-19T10:55:50.998Z,7.40
2018-12-19T10:58:18.201Z,7.20
2018-12-19T11:00:51.161Z,6.80
2018-12-19T11:03:18.461Z,6.23
2018-12-19T11:05:45.711Z,6.80
2018-12-19T11:08:12.922Z,6.97
2018-12-19T11:10:41.157Z,6.83
2018-12-19T11:13:08.470Z,6.67
2018-12-19T11:15:35.738Z,7.03
2018-12-19T11:18:02.978Z,5.80
2018-12-19T11:20:30.216Z,5.60
2018-12-19T11:22:57.456Z,6.00
2018-12-19T11:25:24.668Z,5.87
2018-12-19T11:27:51.972Z,6.17
2018-12-19T11:30:19.278Z,6.30
2018-12-19T11:32:46.521Z,5.40
2018-12-19T11:35:13.792Z,5.70
2018-12-19T11:37:41.040Z,5.57
2018-12-19T11:40:08.754Z,6.17
2018-12-19T11:42:36.040Z,6.30
2018-12-19T11:45:04.070Z,6.57
2018-12-19T11:47:31.332Z,6.00
2018-12-19T11:49:58.561Z,5.47
2018-12-19T11:52:25.829Z,5.50
2018-12-19T11:54:53.060Z,6.47
2018-12-19T11:57:20.325Z,7.03
2018-12-19T11:59:47.550Z,5.70
2018-12-19T12:02:14.796Z,5.50
2018-12-19T12:04:42.006Z,6.07
2018-12-19T12:07:09.673Z,4.80
2018-12-19T12:09:36.996Z,4.43
2018-12-19T12:12:04.234Z,4.77
2018-12-19T12:14:31.455Z,4.33
2018-12-19T12:16:58.760Z,3.73
2018-12-19T12:19:26.136Z,4.60
2018-12-19T12:21:53.370Z,4.10
2018-12-19T12:24:20.603Z,5.00
2018-12-19T12:26:47.826Z,4.37
2018-12-19T12:29:15.075Z,4.00
2018-12-19T12:31:42.322Z,3.60
2018-12-19T12:34:09.610Z,4.27
2018-12-19T12:36:36.885Z,3.70
2018-12-19T12:39:06.817Z,3.57
2018-12-19T12:41:34.033Z,3.40
2018-12-19T12:44:01.285Z,3.57
2018-12-19T12:46:28.510Z,3.20
2018-12-19T12:48:55.905Z,4.10
2018-12-19T12:51:23.140Z,3.90
2018-12-19T12:53:50.403Z,3.87
2018-12-19T12:56:17.640Z,3.40
2018-12-19T12:58:44.901Z,3.47
2018-12-19T13:01:12.213Z,3.67
2018-12-19T13:03:39.565Z,3.87
2018-12-19T13:06:07.014Z,4.40
2018-12-19T13:08:34.298Z,4.80
2018-12-19T13:11:01.605Z,3.90
2018-12-19T13:13:28.961Z,3.80
2018-12-19T13:15:56.244Z,4.77
2018-12-19T13:18:23.512Z,5.37
2018-12-19T13:20:50.734Z,6.50
2018-12-19T13:23:18.154Z,7.60
2018-12-19T13:25:45.401Z,7.23
2018-12-19T13:28:16.186Z,7.90
2018-12-19T13:30:43.546Z,7.30
2018-12-19T13:33:10.970Z,7.10
2018-12-19T13:35:38.280Z,7.77
2018-12-19T13:38:05.630Z,6.83
2018-12-19T13:40:32.984Z,5.83
2018-12-19T13:43:00.195Z,5.57
2018-12-19T13:45:27.527Z,6.40
2018-12-19T13:47:54.783Z,5.13
2018-12-19T13:50:22.105Z,4.70
2018-12-19T13:52:49.374Z,5.80
2018-12-19T13:55:16.621Z,3.90
2018-12-19T13:57:43.828Z,4.13
2018-12-19T14:00:11.364Z,4.60
2018-12-19T14:02:38.666Z,3.87
2018-12-19T14:05:06.099Z,4.93
2018-12-19T14:07:33.337Z,4.80
2018-12-19T14:10:00.724Z,4.40
2018-12-19T14:12:28.000Z,4.17
2018-12-19T14:14:55.240Z,4.00
2018-12-19T14:17:22.625Z,3.93
2018-12-19T14:19:49.888Z,3.60
2018-12-19T14:22:17.280Z,3.57
2018-12-19T14:24:44.539Z,3.10
2018-12-19T14:27:11.840Z,2.80
2018-12-19T14:29:39.116Z,3.30
2018-12-19T14:32:06.339Z,3.00
2018-12-19T14:34:33.727Z,3.23
2018-12-19T14:37:00.945Z,2.80
2018-12-19T14:39:28.253Z,3.40
2018-12-19T14:41:55.633Z,2.90
2018-12-19T14:44:22.919Z,4.00
2018-12-19T14:46:50.194Z,3.70
2018-12-19T14:49:17.856Z,3.87
2018-12-19T14:51:45.110Z,3.53
2018-12-19T14:54:12.461Z,2.80
2018-12-19T14:56:39.779Z,4.20
2018-12-19T14:59:07.032Z,3.20
2018-12-19T15:01:34.316Z,3.10
2018-12-19T15:04:01.656Z,3.27
2018-12-19T15:06:28.978Z,4.30
2018-12-19T15:08:56.369Z,3.20
2018-12-19T15:11:23.636Z,4.00
2018-12-19T15:13:51.021Z,4.13
2018-12-19T15:16:22.535Z,2.93
2018-12-19T15:18:51.800Z,3.00
2018-12-19T15:21:20.440Z,4.17
2018-12-19T15:23:48.228Z,3.60
2018-12-19T15:26:16.057Z,3.73
2018-12-19T15:28:43.859Z,3.20
2018-12-19T15:31:11.220Z,3.70
2018-12-19T15:33:38.496Z,4.10
2018-12-19T15:36:07.144Z,3.90
2018-12-19T15:38:35.121Z,4.20
2018-12-19T15:41:02.646Z,4.40
2018-12-19T15:43:30.433Z,4.33
2018-12-19T15:45:57.752Z,5.20
2018-12-19T15:48:25.429Z,5.40
2018-12-19T15:50:52.774Z,6.60
2018-12-19T15:53:20.050Z,5.93
2018-12-19T15:55:47.416Z,6.93
2018-12-19T15:58:14.743Z,6.80
2018-12-19T16:00:43.726Z,6.20
2018-12-19T16:03:12.397Z,6.50
2018-12-19T16:05:41.458Z,6.37
2018-12-19T16:08:10.235Z,7.37
2018-12-19T16:10:39.063Z,5.90
2018-12-19T16:13:07.850Z,6.60
2018-12-19T16:15:36.238Z,7.37
2018-12-19T16:18:05.189Z,6.37
2018-12-19T16:20:34.469Z,4.47
2018-12-19T16:23:03.260Z,5.03
2018-12-19T16:25:31.858Z,5.97
2018-12-19T16:28:00.537Z,4.57
2018-12-19T16:30:28.158Z,5.23
2018-12-19T16:32:57.322Z,4.73
2018-12-19T16:35:26.370Z,6.87
2018-12-19T16:37:55.283Z,7.93
2018-12-19T16:40:23.904Z,8.07
2018-12-19T16:42:53.227Z,8.87
2018-12-19T16:45:20.530Z,6.23
2018-12-19T16:47:47.775Z,7.30
2018-12-19T16:50:14.981Z,10.43
2018-12-19T16:52:42.253Z,8.30
2018-12-19T16:55:09.713Z,6.60
2018-12-19T16:57:36.938Z,6.10
2018-12-19T17:00:05.224Z,7.03
2018-12-19T17:02:32.672Z,5.60
2018-12-19T17:04:59.943Z,5.90
2018-12-19T17:07:27.177Z,5.27
2018-12-19T17:09:54.388Z,5.10
2018-12-19T17:12:21.645Z,6.73
2018-12-19T17:14:48.876Z,5.50
2018-12-19T17:17:16.204Z,5.10
2018-12-19T17:19:43.415Z,5.60
2018-12-19T17:22:10.804Z,4.97
2018-12-19T17:24:40.250Z,6.53
2018-12-19T17:27:07.629Z,8.80
2018-12-19T17:29:35.077Z,5.80
2018-12-19T17:32:02.473Z,5.00
2018-12-19T17:34:29.765Z,5.40
2018-12-19T17:36:56.987Z,6.33
2018-12-19T17:39:24.210Z,6.27
2018-12-19T17:41:51.496Z,6.93
2018-12-19T17:44:18.770Z,8.10
2018-12-19T17:46:46.026Z,7.07
2018-12-19T17:49:13.404Z,7.17
2018-12-19T17:51:40.662Z,8.07
2018-12-19T17:54:07.968Z,7.97
2018-12-19T17:56:35.317Z,6.93
2018-12-19T17:59:02.923Z,7.17
2018-12-19T18:01:30.273Z,8.73
2018-12-19T18:03:57.516Z,8.50
2018-12-19T18:06:24.729Z,8.50
2018-12-19T18:08:52.041Z,8.00
2018-12-19T18:11:19.253Z,9.83
2018-12-19T18:13:46.629Z,9.10
2018-12-19T18:16:14.159Z,8.10
2018-12-19T18:18:41.391Z,8.70
2018-12-19T18:21:08.616Z,9.53
2018-12-19T18:23:35.889Z,9.10
2018-12-19T18:26:03.397Z,9.80
2018-12-19T18:28:30.624Z,8.70
2018-12-19T18:30:57.844Z,9.13
2018-12-19T18:33:25.097Z,9.37
2018-12-19T18:35:52.350Z,9.60
2018-12-19T18:38:19.654Z,9.10
2018-12-19T18:40:46.951Z,8.30
2018-12-19T18:43:14.188Z,10.00
2018-12-19T18:45:41.545Z,8.90
2018-12-19T18:48:08.833Z,9.30
2018-12-19T18:50:36.201Z,9.53
2018-12-19T18:53:03.504Z,11.10
2018-12-19T18:55:30.715Z,8.53
2018-12-19T18:57:57.915Z,9.73
2018-12-19T19:00:31.293Z,8.13
2018-12-19T19:02:58.633Z,8.83
2018-12-19T19:05:26.133Z,9.00
2018-12-19T19:07:53.410Z,10.03
2018-12-19T19:10:20.660Z,10.00
2018-12-19T19:12:48.151Z,9.77
2018-12-19T19:15:15.407Z,11.37
2018-12-19T19:17:42.753Z,9.20
2018-12-19T19:20:10.068Z,9.50
2018-12-19T19:22:37.317Z,10.00
2018-12-19T19:25:04.824Z,8.97
2018-12-19T19:27:32.043Z,10.30
2018-12-19T19:29:59.361Z,9.40
2018-12-19T19:32:26.605Z,9.80
2018-12-19T19:34:53.858Z,11.53
2018-12-19T19:37:21.102Z,11.10
2018-12-19T19:39:48.363Z,11.10
2018-12-19T19:42:15.626Z,9.37
2018-12-19T19:44:42.873Z,11.80
2018-12-19T19:47:10.113Z,11.43
2018-12-19T19:49:37.429Z,10.80
2018-12-19T19:52:04.675Z,10.23
2018-12-19T19:54:31.909Z,9.90
2018-12-19T19:56:59.133Z,12.20
2018-12-19T19:59:26.388Z,12.10
2018-12-19T20:01:53.693Z,10.87
2018-12-19T20:04:21.144Z,10.17
2018-12-19T20:06:48.391Z,10.33
2018-12-19T20:09:15.680Z,10.20
2018-12-19T20:11:42.937Z,9.87
2018-12-19T20:14:10.213Z,10.93
2018-12-19T20:16:43.174Z,12.40
2018-12-19T20:19:10.405Z,12.03
2018-12-19T20:21:37.663Z,10.90
2018-12-19T20:24:05.025Z,11.60
2018-12-19T20:26:32.276Z,18.00
2018-12-19T20:28:59.493Z,13.47
2018-12-19T20:31:26.773Z,11.87
2018-12-19T20:33:54.012Z,13.00
2018-12-19T20:36:21.254Z,10.57
2018-12-19T20:38:48.579Z,12.63
2018-12-19T20:41:22.602Z,11.73
2018-12-19T20:43:49.904Z,13.23
2018-12-19T20:46:17.193Z,11.47
2018-12-19T20:48:44.432Z,10.73
2018-12-19T20:51:11.880Z,12.93
2018-12-19T20:53:39.144Z,12.00
2018-12-19T20:56:06.496Z,11.00
2018-12-19T20:58:33.818Z,10.57
2018-12-19T21:01:01.196Z,11.03
2018-12-19T21:03:28.425Z,10.80
2018-12-19T21:05:55.796Z,10.90
2018-12-19T21:08:23.075Z,10.00
2018-12-19T21:10:50.401Z,10.50
2018-12-19T21:13:17.687Z,9.37
2018-12-19T21:15:45.012Z,11.07
2018-12-19T21:18:18.084Z,10.30
2018-12-19T21:20:45.349Z,9.57
2018-12-19T21:23:12.620Z,11.03
2018-12-19T21:25:39.829Z,11.07
2018-12-19T21:28:07.075Z,9.70
2018-12-19T21:30:34.407Z,11.30
2018-12-19T21:33:01.651Z,10.90
2018-12-19T21:35:28.860Z,10.30
2018-12-19T21:37:56.151Z,10.60
2018-12-19T21:40:23.612Z,10.43
2018-12-19T21:42:51.021Z,11.23
2018-12-19T21:45:18.265Z,9.93
2018-12-19T21:47:45.582Z,10.17
2018-12-19T21:50:13.067Z,9.53
2018-12-19T21:52:40.572Z,9.63
2018-12-19T21:55:07.872Z,10.00
2018-12-19T21:57:35.125Z,10.77
2018-12-19T22:00:02.844Z,12.50
2018-12-19T22:02:30.235Z,13.90
2018-12-19T22:04:57.860Z,16.50
2018-12-19T22:07:25.311Z,14.80
2018-12-19T22:09:52.919Z,15.10
2018-12-19T22:12:20.256Z,16.00
2018-12-19T22:14:47.582Z,15.33
2018-12-19T22:17:20.627Z,15.00
2018-12-19T22:19:47.975Z,14.20
2018-12-19T22:22:15.237Z,16.27
2018-12-19T22:24:42.453Z,13.93
2018-12-19T22:27:09.815Z,13.63
2018-12-19T22:29:37.135Z,14.10
2018-12-19T22:32:04.567Z,12.10
2018-12-19T22:34:31.890Z,12.07
2018-12-19T22:36:59.460Z,11.53
2018-12-19T22:39:26.693Z,14.33
2018-12-19T22:41:54.041Z,12.77
2018-12-19T22:44:21.344Z,11.10
2018-12-19T22:46:48.636Z,11.00
2018-12-19T22:49:15.949Z,11.73
2018-12-19T22:51:43.692Z,11.93
2018-12-19T22:54:11.148Z,11.10
2018-12-19T22:56:38.622Z,13.10
2018-12-19T22:59:06.253Z,12.97
2018-12-19T23:01:39.918Z,11.47
2018-12-19T23:04:07.449Z,13.30
2018-12-19T23:06:35.615Z,12.20
2018-12-19T23:09:06.048Z,11.53
2018-12-19T23:11:33.404Z,11.10
2018-12-19T23:14:00.693Z,12.20
2018-12-19T23:16:28.026Z,12.37
2018-12-19T23:18:55.680Z,12.07
2018-12-19T23:21:23.420Z,11.00
2018-12-19T23:23:50.704Z,9.97
2018-12-19T23:26:25.927Z,10.53
2018-12-19T23:28:57.993Z,10.23
2018-12-19T23:31:25.305Z,10.67
2018-12-19T23:33:52.561Z,11.20
2018-12-19T23:36:19.894Z,11.70
2018-12-19T23:38:47.294Z,12.00
2018-12-19T23:41:14.560Z,10.93
2018-12-19T23:43:41.865Z,9.83
2018-12-19T23:46:09.140Z,10.37
2018-12-19T23:48:36.434Z,9.70
2018-12-19T23:51:03.910Z,11.00
2018-12-19T23:53:31.298Z,11.40
2018-12-19T23:55:58.605Z,10.70
2018-12-19T23:58:25.845Z,11.23
